createdAt,value
2023-04-13T00:01:50.642Z,99055.96
2023-04-13T00:04:18.793Z,99063.09
2023-04-13T00:06:50.415Z,99069.38
2023-04-13T00:09:20.611Z,99072.38
2023-04-13T00:11:49.731Z,99078.05
2023-04-13T00:14:20.843Z,99078.33
2023-04-13T00:16:54.518Z,99083.45
2023-04-13T00:19:24.380Z,99082.04
2023-04-13T00:21:55.630Z,99080.54
2023-04-13T00:24:24.129Z,99076.73
2023-04-13T00:26:54.627Z,99080.51
2023-04-13T00:29:23.460Z,99079.21
2023-04-13T00:31:51.692Z,99075.98
2023-04-13T00:34:19.569Z,99076.80
2023-04-13T00:36:48.860Z,99074.58
2023-04-13T00:39:22.770Z,99071.11
2023-04-13T00:41:53.507Z,99065.33
2023-04-13T00:44:21.806Z,99056.02
2023-04-13T00:46:51.011Z,99049.70
2023-04-13T00:49:19.573Z,99044.27
2023-04-13T00:51:49.449Z,99042.39
2023-04-13T00:54:18.228Z,99046.23
2023-04-13T00:56:48.511Z,99051.48
2023-04-13T00:59:17.451Z,99047.14
2023-04-13T01:01:51.127Z,99041.53
2023-04-13T01:04:27.756Z,99046.99
2023-04-13T01:07:47.611Z,99037.13
2023-04-13T01:10:56.766Z,99036.86
2023-04-13T01:13:35.231Z,99050.95
2023-04-13T01:16:15.992Z,99052.69
2023-04-13T01:18:45.802Z,99054.59
2023-04-13T01:21:20.540Z,99045.49
2023-04-13T01:24:09.167Z,99046.16
2023-04-13T01:26:55.487Z,99056.55
2023-04-13T01:29:26.310Z,99055.13
2023-04-13T01:31:55.040Z,99054.26
2023-04-13T01:34:23.521Z,99057.86
2023-04-13T01:36:51.552Z,99057.66
2023-04-13T01:39:25.615Z,99050.70
2023-04-13T01:42:06.538Z,99042.99
2023-04-13T01:44:35.061Z,99046.06
2023-04-13T01:47:16.607Z,99047.27
2023-04-13T01:49:55.987Z,99047.02
2023-04-13T01:52:33.555Z,99046.10
2023-04-13T01:55:02.765Z,99048.66
2023-04-13T01:57:32.432Z,99052.73
2023-04-13T02:00:07.219Z,99052.46
2023-04-13T02:02:41.973Z,99052.45
2023-04-13T02:05:11.635Z,99052.34
2023-04-13T02:07:42.921Z,99049.35
2023-04-13T02:10:12.184Z,99050.69
2023-04-13T02:12:41.008Z,99050.98
2023-04-13T02:15:09.593Z,99056.35
2023-04-13T02:17:41.829Z,99059.54
2023-04-13T02:20:14.147Z,99056.45
2023-04-13T02:22:48.272Z,99047.05
2023-04-13T02:25:19.292Z,99042.73
2023-04-13T02:27:47.679Z,99038.47
2023-04-13T02:30:17.800Z,99039.89
2023-04-13T02:33:00.916Z,99037.03
2023-04-13T02:35:29.491Z,99038.66
2023-04-13T02:37:58.177Z,99042.72
2023-04-13T02:40:28.584Z,99045.85
2023-04-13T02:43:00.049Z,99048.55
2023-04-13T02:45:29.426Z,99047.39
2023-04-13T02:48:06.533Z,99047.77
2023-04-13T02:50:35.166Z,99051.54
2023-04-13T02:53:08.114Z,99053.29
2023-04-13T02:55:43.485Z,99056.89
2023-04-13T02:58:13.675Z,99060.48
2023-04-13T03:00:44.920Z,99055.95
2023-04-13T03:03:20.513Z,99053.55
2023-04-13T03:05:50.838Z,99050.98
2023-04-13T03:08:21.786Z,99053.42
2023-04-13T03:11:26.453Z,99060.91
2023-04-13T03:14:13.416Z,99061.23
2023-04-13T03:16:42.000Z,99058.58
2023-04-13T03:19:13.097Z,99062.02
2023-04-13T03:21:44.512Z,99069.66
2023-04-13T03:24:15.134Z,99073.00
2023-04-13T03:26:43.452Z,99077.20
2023-04-13T03:29:14.437Z,99078.50
2023-04-13T03:31:44.507Z,99079.61
2023-04-13T03:34:13.027Z,99082.61
2023-04-13T03:36:42.125Z,99081.27
2023-04-13T03:39:13.765Z,99084.45
2023-04-13T03:41:42.174Z,99090.95
2023-04-13T03:44:10.830Z,99089.58
2023-04-13T03:46:41.546Z,99093.65
2023-04-13T03:49:24.118Z,99092.63
2023-04-13T03:51:57.352Z,99090.28
2023-04-13T03:54:25.981Z,99086.30
2023-04-13T03:56:54.231Z,99089.83
2023-04-13T03:59:22.405Z,99089.06
2023-04-13T04:01:50.603Z,99088.86
2023-04-13T04:04:19.778Z,99089.67
2023-04-13T04:06:51.587Z,99087.13
2023-04-13T04:09:21.327Z,99086.94
2023-04-13T04:11:49.489Z,99087.08
2023-04-13T04:14:23.236Z,99090.51
2023-04-13T04:16:56.531Z,99095.27
2023-04-13T04:19:24.458Z,99104.27
2023-04-13T04:21:53.149Z,99107.04
2023-04-13T04:24:27.762Z,99109.98
2023-04-13T04:26:59.380Z,99106.84
2023-04-13T04:29:36.723Z,99110.30
2023-04-13T04:32:19.909Z,99112.14
2023-04-13T04:34:48.306Z,99117.48
2023-04-13T04:37:21.388Z,99119.59
2023-04-13T04:40:10.073Z,99121.20
2023-04-13T04:42:39.196Z,99121.20
2023-04-13T04:45:11.183Z,99125.33
2023-04-13T04:47:43.840Z,99124.00
2023-04-13T04:50:17.890Z,99117.13
2023-04-13T04:52:48.540Z,99109.66
2023-04-13T04:55:20.047Z,99104.85
2023-04-13T04:57:52.782Z,99106.73
2023-04-13T05:00:22.102Z,99108.98
2023-04-13T05:03:10.176Z,99109.24
2023-04-13T05:05:41.344Z,99099.80
2023-04-13T05:08:12.052Z,99099.73
2023-04-13T05:10:46.869Z,99094.34
2023-04-13T05:13:15.671Z,99094.96
2023-04-13T05:15:48.992Z,99096.05
2023-04-13T05:18:19.667Z,99100.92
2023-04-13T05:20:47.650Z,99101.90
2023-04-13T05:23:22.468Z,99101.41
2023-04-13T05:25:54.702Z,99103.55
2023-04-13T05:28:23.061Z,99108.28
2023-04-13T05:31:02.012Z,99111.27
2023-04-13T05:33:31.877Z,99119.33
2023-04-13T05:36:00.613Z,99122.60
2023-04-13T05:38:29.130Z,99123.09
2023-04-13T05:41:01.116Z,99123.95
2023-04-13T05:43:29.344Z,99126.46
2023-04-13T05:45:58.593Z,99124.90
2023-04-13T05:48:26.842Z,99125.49
2023-04-13T05:51:00.134Z,99126.09
2023-04-13T05:53:33.723Z,99127.34
2023-04-13T05:56:02.716Z,99119.52
2023-04-13T05:58:32.761Z,99116.27
2023-04-13T06:01:12.969Z,99117.81
2023-04-13T06:03:41.432Z,99121.39
2023-04-13T06:06:10.501Z,99126.36
2023-04-13T06:08:40.189Z,99124.90
2023-04-13T06:11:09.345Z,99126.65
2023-04-13T06:13:41.746Z,99130.57
2023-04-13T06:16:10.709Z,99131.05
2023-04-13T06:18:38.790Z,99130.36
2023-04-13T06:21:07.507Z,99125.77
2023-04-13T06:23:37.394Z,99132.27
2023-04-13T06:26:09.441Z,99135.45
2023-04-13T06:28:49.603Z,99137.95
2023-04-13T06:31:17.789Z,99141.91
2023-04-13T06:33:47.926Z,99140.65
2023-04-13T06:36:22.168Z,99143.62
2023-04-13T06:38:50.140Z,99150.66
2023-04-13T06:41:18.133Z,99156.88
2023-04-13T06:43:47.867Z,99160.38
2023-04-13T06:46:23.371Z,99160.65
2023-04-13T06:48:57.072Z,99165.31
2023-04-13T06:51:27.157Z,99161.81
2023-04-13T06:53:55.972Z,99161.80
2023-04-13T06:56:25.758Z,99162.05
2023-04-13T06:59:00.162Z,99159.92
2023-04-13T07:01:30.305Z,99160.20
2023-04-13T07:04:02.797Z,99164.02
2023-04-13T07:06:33.324Z,99169.70
2023-04-13T07:09:02.367Z,99167.20
2023-04-13T07:11:37.837Z,99166.19
2023-04-13T07:14:08.797Z,99163.39
2023-04-13T07:16:36.982Z,99162.09
2023-04-13T07:19:04.778Z,99163.70
2023-04-13T07:21:33.684Z,99160.50
2023-04-13T07:24:06.128Z,99157.73
2023-04-13T07:26:41.202Z,99152.84
2023-04-13T07:29:13.652Z,99153.80
2023-04-13T07:31:45.386Z,99149.80
2023-04-13T07:34:13.915Z,99156.56
2023-04-13T07:36:44.700Z,99155.45
2023-04-13T07:39:14.543Z,99160.37
2023-04-13T07:41:46.491Z,99163.66
2023-04-13T07:44:17.694Z,99164.84
2023-04-13T07:46:45.793Z,99168.98
2023-04-13T07:49:13.721Z,99173.92
2023-04-13T07:51:44.424Z,99175.20
2023-04-13T07:54:13.951Z,99180.81
2023-04-13T07:56:44.255Z,99182.56
2023-04-13T07:59:14.982Z,99188.57
2023-04-13T08:01:43.228Z,99189.95
2023-04-13T08:04:11.893Z,99183.80
2023-04-13T08:06:41.010Z,99183.80
2023-04-13T08:09:09.586Z,99186.43
2023-04-13T08:11:37.704Z,99190.93
2023-04-13T08:14:12.031Z,99191.81
2023-04-13T08:16:42.458Z,99194.23
2023-04-13T08:19:11.438Z,99197.23
2023-04-13T08:21:43.204Z,99196.61
2023-04-13T08:24:12.734Z,99196.65
2023-04-13T08:26:41.914Z,99192.98
2023-04-13T08:29:10.588Z,99190.36
2023-04-13T08:31:43.508Z,99191.78
2023-04-13T08:34:12.916Z,99193.18
2023-04-13T08:36:41.078Z,99193.52
2023-04-13T08:39:12.626Z,99192.26
2023-04-13T08:41:47.177Z,99197.80
2023-04-13T08:44:17.738Z,99198.36
2023-04-13T08:46:52.738Z,99196.80
2023-04-13T08:49:25.983Z,99189.48
2023-04-13T08:52:14.472Z,99191.27
2023-04-13T08:54:45.909Z,99192.80
2023-04-13T08:57:18.296Z,99189.79
2023-04-13T08:59:46.284Z,99190.01
2023-04-13T09:02:14.420Z,99188.84
2023-04-13T09:04:55.895Z,99189.02
2023-04-13T09:07:32.502Z,99191.23
2023-04-13T09:10:10.391Z,99194.47
2023-04-13T09:12:41.654Z,99200.33
2023-04-13T09:15:10.590Z,99201.34
2023-04-13T09:17:48.514Z,99204.95
2023-04-13T09:20:22.787Z,99201.70
2023-04-13T09:22:52.202Z,99199.46
2023-04-13T09:25:24.414Z,99201.36
2023-04-13T09:27:54.057Z,99204.38
2023-04-13T09:30:27.334Z,99201.64
2023-04-13T09:33:06.097Z,99199.75
2023-04-13T09:35:34.768Z,99199.77
2023-04-13T09:38:04.936Z,99205.34
2023-04-13T09:40:38.294Z,99201.45
2023-04-13T09:43:10.406Z,99201.08
2023-04-13T09:45:41.453Z,99201.14
2023-04-13T09:48:22.055Z,99201.94
2023-04-13T09:51:05.379Z,99203.52
2023-04-13T09:53:47.266Z,99208.21
2023-04-13T09:56:16.222Z,99213.60
2023-04-13T09:58:48.824Z,99213.65
2023-04-13T10:01:19.059Z,99214.30
2023-04-13T10:03:47.212Z,99214.69
2023-04-13T10:06:15.345Z,99214.27
2023-04-13T10:08:43.503Z,99216.94
2023-04-13T10:11:13.453Z,99221.57
2023-04-13T10:13:48.182Z,99218.60
2023-04-13T10:16:26.342Z,99217.39
2023-04-13T10:19:02.789Z,99216.03
2023-04-13T10:21:35.254Z,99216.58
2023-04-13T10:27:20.520Z,99216.95
2023-04-13T10:29:48.781Z,99223.58
2023-04-13T10:32:23.830Z,99222.31
2023-04-13T10:34:52.765Z,99224.29
2023-04-13T10:37:23.418Z,99225.77
2023-04-13T10:40:09.552Z,99222.79
2023-04-13T10:42:52.382Z,99221.48
2023-04-13T10:45:27.520Z,99221.74
2023-04-13T10:47:55.697Z,99228.09
2023-04-13T10:50:24.923Z,99230.93
2023-04-13T10:53:06.943Z,99232.40
2023-04-13T10:55:35.437Z,99235.98
2023-04-13T10:58:14.025Z,99240.67
2023-04-13T11:00:46.231Z,99243.46
2023-04-13T11:03:15.589Z,99245.30
2023-04-13T11:05:57.725Z,99249.65
2023-04-13T11:08:28.619Z,99253.95
2023-04-13T11:10:57.282Z,99254.53
2023-04-13T11:13:25.736Z,99256.30
2023-04-13T11:16:03.568Z,99256.95
2023-04-13T11:18:32.381Z,99259.16
2023-04-13T11:21:06.089Z,99262.47
2023-04-13T11:23:36.307Z,99262.61
2023-04-13T11:26:04.870Z,99261.34
2023-04-13T11:28:39.465Z,99259.09
2023-04-13T11:31:07.813Z,99259.77
2023-04-13T11:33:39.933Z,99256.62
2023-04-13T11:36:09.927Z,99256.45
2023-04-13T11:38:40.986Z,99259.54
2023-04-13T11:41:16.269Z,99260.47
2023-04-13T11:43:51.440Z,99259.74
2023-04-13T11:46:25.684Z,99257.52
2023-04-13T11:48:54.640Z,99259.18
2023-04-13T11:51:23.200Z,99259.82
2023-04-13T11:53:52.159Z,99258.50
2023-04-13T11:56:21.091Z,99262.41
2023-04-13T11:58:55.382Z,99266.59
2023-04-13T12:01:27.135Z,99270.00
2023-04-13T12:04:14.850Z,99268.15
2023-04-13T12:06:46.194Z,99266.88
2023-04-13T12:09:17.729Z,99268.87
2023-04-13T12:12:11.982Z,99270.50
2023-04-13T12:19:55.056Z,99273.71
2023-04-13T12:22:25.000Z,99271.45
2023-04-13T12:24:56.693Z,99269.54
2023-04-13T12:27:25.549Z,99278.34
2023-04-13T12:30:02.646Z,99275.05
2023-04-13T12:32:36.802Z,99277.20
2023-04-13T12:35:06.534Z,99275.38
2023-04-13T12:37:39.229Z,99276.18
2023-04-13T12:40:15.600Z,99278.95
2023-04-13T12:42:48.329Z,99275.55
2023-04-13T12:45:17.003Z,99279.02
2023-04-13T12:47:46.133Z,99275.11
2023-04-13T12:50:14.133Z,99281.13
2023-04-13T12:52:43.148Z,99283.66
2023-04-13T12:55:11.567Z,99288.30
2023-04-13T12:57:41.897Z,99285.89
2023-04-13T13:00:12.010Z,99289.89
2023-04-13T13:02:42.860Z,99296.64
2023-04-13T13:05:12.036Z,99299.41
2023-04-13T13:07:40.275Z,99294.52
2023-04-13T13:10:29.028Z,99293.96
2023-04-13T13:12:58.618Z,99295.53
2023-04-13T13:15:26.552Z,99295.15
2023-04-13T13:17:55.566Z,99297.41
2023-04-13T13:20:24.132Z,99305.39
2023-04-13T13:22:52.205Z,99306.05
2023-04-13T13:25:24.759Z,99312.89
2023-04-13T13:30:24.765Z,99317.88
2023-04-13T13:32:54.716Z,99318.27
2023-04-13T13:35:22.912Z,99317.55
2023-04-13T13:37:50.763Z,99318.75
2023-04-13T13:40:19.440Z,99317.02
2023-04-13T13:42:52.206Z,99312.15
2023-04-13T13:45:21.456Z,99309.30
2023-04-13T13:47:57.707Z,99308.38
2023-04-13T13:50:35.297Z,99312.77
2023-04-13T13:53:05.356Z,99313.02
2023-04-13T13:55:38.192Z,99310.43
2023-04-13T13:58:08.128Z,99309.31
2023-04-13T14:00:36.045Z,99307.02
2023-04-13T14:03:04.098Z,99304.36
2023-04-13T14:05:32.310Z,99308.54
2023-04-13T14:08:00.592Z,99309.84
2023-04-13T14:10:29.098Z,99321.58
2023-04-13T14:12:58.915Z,99316.80
2023-04-13T14:15:28.977Z,99319.84
2023-04-13T14:18:09.901Z,99321.79
2023-04-13T14:20:39.761Z,99321.32
2023-04-13T14:23:09.547Z,99321.45
2023-04-13T14:25:38.698Z,99321.34
2023-04-13T14:28:09.399Z,99322.48
2023-04-13T14:30:39.373Z,99327.47
2023-04-13T14:33:08.764Z,99327.61
2023-04-13T14:35:38.865Z,99329.60
2023-04-13T14:38:08.363Z,99332.20
2023-04-13T14:40:40.022Z,99330.30
2023-04-13T14:43:08.163Z,99332.63
2023-04-13T14:45:36.306Z,99336.38
2023-04-13T14:48:05.520Z,99334.41
2023-04-13T14:50:38.156Z,99337.85
2023-04-13T14:53:07.893Z,99339.90
2023-04-13T14:55:36.441Z,99341.95
2023-04-13T14:58:05.352Z,99345.88
2023-04-13T15:00:40.158Z,99348.86
2023-04-13T15:03:28.915Z,99347.75
2023-04-13T15:06:03.975Z,99352.66
2023-04-13T15:08:34.075Z,99354.73
2023-04-13T15:11:04.487Z,99355.81
2023-04-13T15:13:32.932Z,99361.13
2023-04-13T15:16:01.325Z,99359.02
2023-04-13T15:18:29.759Z,99356.80
2023-04-13T15:21:04.091Z,99355.16
2023-04-13T15:23:33.273Z,99359.28
2023-04-13T15:26:01.298Z,99358.58
2023-04-13T15:28:32.837Z,99362.50
2023-04-13T15:31:01.539Z,99366.25
2023-04-13T15:33:29.698Z,99363.55
2023-04-13T15:35:59.373Z,99370.11
2023-04-13T15:38:27.878Z,99369.08
2023-04-13T15:40:56.097Z,99374.89
2023-04-13T15:43:25.524Z,99379.46
2023-04-13T15:45:53.574Z,99374.91
2023-04-13T15:48:24.449Z,99373.41
2023-04-13T15:51:02.308Z,99374.16
2023-04-13T15:53:30.517Z,99379.34
2023-04-13T15:55:58.579Z,99380.44
2023-04-13T15:58:26.558Z,99382.73
2023-04-13T16:01:03.799Z,99385.17
2023-04-13T16:03:33.950Z,99387.68
2023-04-13T16:06:02.317Z,99388.55
2023-04-13T16:08:32.685Z,99391.02
2023-04-13T16:11:01.485Z,99392.55
2023-04-13T16:13:47.109Z,99391.78
2023-04-13T16:16:23.943Z,99393.95
2023-04-13T16:19:00.497Z,99399.46
2023-04-13T16:21:30.388Z,99400.96
2023-04-13T16:23:59.100Z,99401.41
2023-04-13T16:26:27.672Z,99399.02
2023-04-13T16:28:56.290Z,99404.24
2023-04-13T16:31:24.291Z,99398.09
2023-04-13T16:33:52.936Z,99398.80
2023-04-13T16:36:21.020Z,99403.31
2023-04-13T16:38:49.368Z,99402.75
2023-04-13T16:41:17.257Z,99404.61
2023-04-13T16:43:45.640Z,99404.05
2023-04-13T16:46:17.017Z,99405.65
2023-04-13T16:48:45.961Z,99402.99
2023-04-13T16:51:13.831Z,99403.45
2023-04-13T16:53:44.149Z,99403.63
2023-04-13T16:56:12.079Z,99406.59
2023-04-13T16:58:40.300Z,99409.33
2023-04-13T17:01:12.439Z,99412.30
2023-04-13T17:03:42.555Z,99418.45
2023-04-13T17:06:10.573Z,99428.00
2023-04-13T17:08:38.619Z,99431.28
2023-04-13T17:11:07.373Z,99433.89
2023-04-13T17:13:36.652Z,99438.05
2023-04-13T17:16:08.358Z,99440.81
2023-04-13T17:18:38.379Z,99440.40
2023-04-13T17:21:06.522Z,99444.08
2023-04-13T17:23:34.433Z,99446.09
2023-04-13T17:26:07.463Z,99451.80
2023-04-13T17:28:36.511Z,99451.11
2023-04-13T17:31:04.476Z,99451.77
2023-04-13T17:33:33.484Z,99451.67
2023-04-13T17:36:01.623Z,99452.84
2023-04-13T17:38:30.020Z,99456.25
2023-04-13T17:40:58.064Z,99456.38
2023-04-13T17:43:26.272Z,99455.19
2023-04-13T17:45:54.297Z,99462.11
2023-04-13T17:48:24.161Z,99464.53
2023-04-13T17:50:52.870Z,99466.87
2023-04-13T17:53:20.874Z,99466.07
2023-04-13T17:55:53.210Z,99468.38
2023-04-13T17:58:21.517Z,99468.81
2023-04-13T18:00:49.398Z,99473.58
2023-04-13T18:03:18.373Z,99474.58
2023-04-13T18:05:47.319Z,99478.39
2023-04-13T18:08:15.794Z,99483.04
2023-04-13T18:10:46.697Z,99486.75
2023-04-13T18:13:14.728Z,99485.84
2023-04-13T18:15:47.221Z,99486.01
2023-04-13T18:18:16.784Z,99484.83
2023-04-13T18:20:49.205Z,99488.86
2023-04-13T18:23:17.116Z,99487.33
2023-04-13T18:25:51.150Z,99488.52
2023-04-13T18:28:19.112Z,99487.48
2023-04-13T18:30:49.582Z,99489.39
2023-04-13T18:33:19.812Z,99487.55
2023-04-13T18:35:47.835Z,99491.20
2023-04-13T18:38:16.016Z,99489.69
2023-04-13T18:40:46.125Z,99493.63
2023-04-13T18:43:14.186Z,99490.75
2023-04-13T18:45:42.121Z,99493.76
2023-04-13T18:48:10.602Z,99492.89
2023-04-13T18:50:38.836Z,99491.92
2023-04-13T18:53:07.806Z,99491.75
2023-04-13T18:55:36.023Z,99485.61
2023-04-13T18:58:05.109Z,99486.80
2023-04-13T19:00:33.721Z,99486.95
2023-04-13T19:03:03.211Z,99487.73
2023-04-13T19:05:33.431Z,99487.88
2023-04-13T19:08:03.616Z,99487.94
2023-04-13T19:10:32.094Z,99485.16
2023-04-13T19:13:00.518Z,99485.80
2023-04-13T19:15:36.455Z,99488.98
2023-04-13T19:18:04.661Z,99492.10
2023-04-13T19:20:32.597Z,99486.97
2023-04-13T19:23:00.696Z,99492.38
2023-04-13T19:25:35.867Z,99492.08
2023-04-13T19:28:04.527Z,99495.63
2023-04-13T19:30:33.314Z,99490.61
2023-04-13T19:33:02.035Z,99494.68
2023-04-13T19:35:31.446Z,99493.55
2023-04-13T19:37:59.470Z,99494.59
2023-04-13T19:40:32.864Z,99497.44
2023-04-13T19:43:01.433Z,99497.14
2023-04-13T19:45:29.752Z,99501.77
2023-04-13T19:47:57.980Z,99495.21
2023-04-13T19:50:27.513Z,99502.00
2023-04-13T19:52:58.193Z,99499.52
2023-04-13T19:55:27.192Z,99501.77
2023-04-13T19:57:55.431Z,99500.98
2023-04-13T20:00:24.614Z,99503.48
2023-04-13T20:03:03.087Z,99501.04
2023-04-13T20:05:32.808Z,99501.67
2023-04-13T20:08:00.743Z,99505.84
2023-04-13T20:10:28.982Z,99510.39
2023-04-13T20:12:57.160Z,99508.70
2023-04-13T20:15:25.053Z,99511.36
2023-04-13T20:17:53.143Z,99513.89
2023-04-13T20:20:23.772Z,99519.06
2023-04-13T20:22:52.033Z,99514.02
2023-04-13T20:25:20.275Z,99515.96
2023-04-13T20:27:49.163Z,99508.29
2023-04-13T20:30:17.154Z,99510.79
2023-04-13T20:32:48.388Z,99509.15
2023-04-13T20:35:16.382Z,99510.71
2023-04-13T20:37:44.765Z,99508.98
2023-04-13T20:40:13.814Z,99509.73
2023-04-13T20:42:42.763Z,99511.41
2023-04-13T20:45:14.203Z,99509.30
2023-04-13T20:47:42.738Z,99508.98
2023-04-13T20:50:11.999Z,99508.31
2023-04-13T20:52:43.302Z,99508.02
2023-04-13T20:55:14.086Z,99507.11
2023-04-13T20:57:44.161Z,99507.45
2023-04-13T21:00:15.430Z,99511.14
2023-04-13T21:02:49.134Z,99512.74
2023-04-13T21:05:17.466Z,99512.26
2023-04-13T21:07:45.365Z,99511.63
2023-04-13T21:10:15.613Z,99512.70
2023-04-13T21:12:44.037Z,99520.09
2023-04-13T21:15:12.322Z,99518.73
2023-04-13T21:17:45.525Z,99521.27
2023-04-13T21:20:13.773Z,99524.71
2023-04-13T21:22:41.674Z,99524.41
2023-04-13T21:25:14.742Z,99526.04
2023-04-13T21:27:42.954Z,99523.64
2023-04-13T21:30:11.616Z,99523.46
2023-04-13T21:32:49.371Z,99518.37
2023-04-13T21:35:17.988Z,99514.67
2023-04-13T21:37:46.370Z,99518.39
2023-04-13T21:40:16.176Z,99521.71
2023-04-13T21:42:44.746Z,99521.04
2023-04-13T21:45:12.854Z,99522.27
2023-04-13T21:47:41.169Z,99523.83
2023-04-13T21:50:09.590Z,99524.06
2023-04-13T21:52:38.784Z,99521.80
2023-04-13T21:55:06.910Z,99521.30
2023-04-13T21:57:35.042Z,99521.90
2023-04-13T22:00:06.207Z,99517.97
2023-04-13T22:02:41.886Z,99514.78
2023-04-13T22:05:10.807Z,99512.73
2023-04-13T22:07:47.528Z,99511.02
2023-04-13T22:10:16.781Z,99507.00
2023-04-13T22:12:45.181Z,99508.74
2023-04-13T22:15:15.099Z,99508.49
2023-04-13T22:17:44.189Z,99509.82
2023-04-13T22:20:12.756Z,99512.42
2023-04-13T22:22:40.722Z,99509.97
2023-04-13T22:25:09.205Z,99509.50
2023-04-13T22:27:37.776Z,99509.73
2023-04-13T22:30:07.407Z,99510.42
2023-04-13T22:32:37.062Z,99510.48
2023-04-13T22:35:05.815Z,99512.30
2023-04-13T22:37:35.653Z,99510.34
2023-04-13T22:40:04.624Z,99508.50
2023-04-13T22:45:37.715Z,99511.59
2023-04-13T22:48:06.112Z,99511.52
2023-04-13T22:50:36.750Z,99514.73
2023-04-13T22:53:08.250Z,99520.45
2023-04-13T22:55:36.460Z,99520.23
2023-04-13T22:58:04.670Z,99527.09
2023-04-13T23:00:35.391Z,99526.52
2023-04-13T23:03:04.880Z,99526.36
2023-04-13T23:05:34.994Z,99531.98
2023-04-13T23:08:03.079Z,99532.41
2023-04-13T23:10:32.000Z,99535.66
2023-04-13T23:13:00.871Z,99538.61
2023-04-13T23:15:28.805Z,99538.86
2023-04-13T23:17:56.723Z,99536.77
2023-04-13T23:20:26.973Z,99532.85
2023-04-13T23:22:54.939Z,99529.88
2023-04-13T23:25:23.595Z,99530.59
2023-04-13T23:27:53.231Z,99529.88
2023-04-13T23:30:21.372Z,99528.54
2023-04-13T23:32:49.599Z,99533.91
2023-04-13T23:35:17.725Z,99537.84
2023-04-13T23:37:46.279Z,99537.92
2023-04-13T23:40:14.916Z,99542.30
2023-04-13T23:42:43.150Z,99541.53
2023-04-13T23:45:12.442Z,99545.95
2023-04-13T23:47:41.244Z,99547.67
2023-04-13T23:50:09.821Z,99552.55
2023-04-13T23:52:37.950Z,99552.36
2023-04-13T23:55:06.002Z,99551.72
2023-04-13T23:57:34.459Z,99551.13
